createdAt,value
2023-03-17T00:01:54.993Z,95448.38
2023-03-17T00:04:23.068Z,95450.00
2023-03-17T00:06:49.938Z,95453.31
2023-03-17T00:09:18.077Z,95443.03
2023-03-17T00:11:45.226Z,95434.59
2023-03-17T00:14:12.211Z,95451.03
2023-03-17T00:16:42.416Z,95448.38
2023-03-17T00:19:18.807Z,95443.63
2023-03-17T00:21:48.745Z,95444.25
2023-03-17T00:24:16.186Z,95445.69
2023-03-17T00:26:43.634Z,95444.88
2023-03-17T00:29:10.544Z,95447.31
2023-03-17T00:31:38.223Z,95448.09
2023-03-17T00:34:06.039Z,95449.94
2023-03-17T00:36:33.759Z,95443.16
2023-03-17T00:39:00.634Z,95437.22
2023-03-17T00:41:28.230Z,95427.94
2023-03-17T00:43:55.819Z,95436.75
2023-03-17T00:46:29.206Z,95441.50
2023-03-17T00:48:56.112Z,95437.38
2023-03-17T00:51:23.656Z,95436.00
2023-03-17T00:53:50.650Z,95430.66
2023-03-17T00:56:19.398Z,95430.59
2023-03-17T00:58:46.675Z,95423.00
2023-03-17T01:01:13.684Z,95423.63
2023-03-17T01:03:41.614Z,95416.63
2023-03-17T01:06:11.092Z,95418.91
2023-03-17T01:08:39.336Z,95417.47
2023-03-17T01:11:06.893Z,95412.53
2023-03-17T01:13:34.585Z,95416.44
2023-03-17T01:16:01.501Z,95418.91
2023-03-17T01:18:28.522Z,95418.91
2023-03-17T01:20:55.437Z,95419.72
2023-03-17T01:23:22.300Z,95420.78
2023-03-17T01:25:49.289Z,95430.84
2023-03-17T01:28:18.260Z,95425.75
2023-03-17T01:30:45.395Z,95422.69
2023-03-17T01:33:13.147Z,95432.53
2023-03-17T01:35:40.351Z,95412.84
2023-03-17T01:38:07.395Z,95416.75
2023-03-17T01:40:36.666Z,95422.06
2023-03-17T01:43:08.471Z,95414.88
2023-03-17T01:46:12.642Z,95414.69
2023-03-17T01:49:13.040Z,95411.16
2023-03-17T01:52:15.126Z,95404.00
2023-03-17T01:54:59.493Z,95400.88
2023-03-17T01:57:41.311Z,95384.44
2023-03-17T02:00:12.634Z,95395.91
2023-03-17T02:02:42.244Z,95385.88
2023-03-17T02:05:09.712Z,95380.31
2023-03-17T02:07:36.976Z,95381.31
2023-03-17T02:10:04.639Z,95389.97
2023-03-17T02:12:31.719Z,95387.28
2023-03-17T02:14:58.824Z,95383.59
2023-03-17T02:17:27.424Z,95386.25
2023-03-17T02:19:54.736Z,95387.06
2023-03-17T02:22:21.743Z,95390.97
2023-03-17T02:24:58.355Z,95377.59
2023-03-17T02:27:36.931Z,95383.13
2023-03-17T02:30:05.027Z,95376.34
2023-03-17T02:32:35.590Z,95376.97
2023-03-17T02:35:03.074Z,95376.75
2023-03-17T02:37:30.205Z,95371.03
2023-03-17T02:39:57.120Z,95366.91
2023-03-17T02:42:24.017Z,95366.31
2023-03-17T02:44:50.952Z,95369.00
2023-03-17T02:47:17.872Z,95372.91
2023-03-17T02:49:44.832Z,95375.97
2023-03-17T02:52:12.186Z,95370.22
2023-03-17T02:54:39.204Z,95371.03
2023-03-17T02:57:06.881Z,95370.03
2023-03-17T02:59:33.747Z,95366.75
2023-03-17T03:02:01.516Z,95367.97
2023-03-17T03:04:28.345Z,95363.28
2023-03-17T03:06:55.260Z,95356.50
2023-03-17T03:09:22.508Z,95354.63
2023-03-17T03:11:49.332Z,95351.94
2023-03-17T03:14:16.551Z,95363.44
2023-03-17T03:16:43.819Z,95363.03
2023-03-17T03:19:10.788Z,95359.13
2023-03-17T03:21:38.010Z,95349.22
2023-03-17T03:24:05.596Z,95344.91
2023-03-17T03:26:32.712Z,95345.91
2023-03-17T03:29:00.350Z,95346.53
2023-03-17T03:31:27.440Z,95353.50
2023-03-17T03:33:54.551Z,95355.78
2023-03-17T03:36:21.879Z,95351.72
2023-03-17T03:38:48.743Z,95360.72
2023-03-17T03:41:15.632Z,95361.56
2023-03-17T03:43:42.625Z,95360.53
2023-03-17T03:46:09.587Z,95356.00
2023-03-17T03:48:36.436Z,95356.03
2023-03-17T03:51:03.450Z,95361.00
2023-03-17T03:53:30.647Z,95360.78
2023-03-17T03:55:57.490Z,95356.69
2023-03-17T03:58:24.422Z,95352.34
2023-03-17T04:00:51.813Z,95357.25
2023-03-17T04:03:18.677Z,95356.22
2023-03-17T04:05:45.544Z,95364.06
2023-03-17T04:08:12.591Z,95359.34
2023-03-17T04:10:39.490Z,95358.09
2023-03-17T04:13:07.010Z,95362.22
2023-03-17T04:15:34.052Z,95368.19
2023-03-17T04:18:01.506Z,95365.13
2023-03-17T04:20:28.824Z,95367.38
2023-03-17T04:22:56.352Z,95362.22
2023-03-17T04:25:23.254Z,95369.38
2023-03-17T04:27:50.102Z,95367.53
2023-03-17T04:30:17.999Z,95373.66
2023-03-17T04:32:45.177Z,95372.44
2023-03-17T04:35:17.899Z,95366.03
2023-03-17T04:37:44.860Z,95363.56
2023-03-17T04:40:13.240Z,95363.75
2023-03-17T04:42:40.859Z,95374.22
2023-03-17T04:45:14.306Z,95376.91
2023-03-17T04:47:41.524Z,95363.72
2023-03-17T04:50:09.094Z,95372.75
2023-03-17T04:52:37.023Z,95371.31
2023-03-17T04:55:05.361Z,95373.38
2023-03-17T04:57:32.808Z,95370.69
2023-03-17T04:59:59.622Z,95366.75
2023-03-17T05:02:26.526Z,95371.28
2023-03-17T05:04:53.788Z,95373.94
2023-03-17T05:07:20.618Z,95368.19
2023-03-17T05:09:48.466Z,95369.00
2023-03-17T05:12:15.637Z,95364.69
2023-03-17T05:14:42.498Z,95369.22
2023-03-17T05:17:09.374Z,95366.16
2023-03-17T05:19:36.844Z,95363.25
2023-03-17T05:22:03.647Z,95364.84
2023-03-17T05:24:30.885Z,95364.41
2023-03-17T05:26:57.893Z,95365.28
2023-03-17T05:29:24.753Z,95361.56
2023-03-17T05:31:51.650Z,95357.88
2023-03-17T05:34:18.534Z,95363.22
2023-03-17T05:36:46.613Z,95362.59
2023-03-17T05:39:14.681Z,95367.09
2023-03-17T05:41:41.633Z,95366.88
2023-03-17T05:44:08.984Z,95364.03
2023-03-17T05:46:35.901Z,95364.47
2023-03-17T05:49:03.476Z,95363.94
2023-03-17T05:51:30.389Z,95362.53
2023-03-17T05:53:57.810Z,95358.03
2023-03-17T05:56:26.830Z,95364.22
2023-03-17T05:58:53.646Z,95368.34
2023-03-17T06:01:21.209Z,95371.28
2023-03-17T06:03:48.656Z,95372.56
2023-03-17T06:06:16.645Z,95378.75
2023-03-17T06:08:43.621Z,95381.84
2023-03-17T06:11:10.659Z,95375.63
2023-03-17T06:13:37.555Z,95377.44
2023-03-17T06:16:04.725Z,95378.56
2023-03-17T06:18:31.663Z,95378.47
2023-03-17T06:20:58.496Z,95379.25
2023-03-17T06:23:26.323Z,95376.59
2023-03-17T06:25:53.170Z,95382.53
2023-03-17T06:28:20.061Z,95386.78
2023-03-17T06:30:47.102Z,95382.97
2023-03-17T06:33:14.053Z,95380.50
2023-03-17T06:35:41.266Z,95380.25
2023-03-17T06:38:08.229Z,95384.81
2023-03-17T06:40:35.110Z,95387.75
2023-03-17T06:43:01.963Z,95393.56
2023-03-17T06:45:29.012Z,95394.66
2023-03-17T06:47:56.452Z,95388.59
2023-03-17T06:50:23.306Z,95396.34
2023-03-17T06:52:50.255Z,95388.75
2023-03-17T06:55:17.880Z,95391.78
2023-03-17T06:57:44.773Z,95384.69
2023-03-17T07:00:14.275Z,95389.56
2023-03-17T07:02:41.826Z,95389.84
2023-03-17T07:05:09.007Z,95387.16
2023-03-17T07:07:35.863Z,95393.16
2023-03-17T07:10:04.340Z,95394.97
2023-03-17T07:12:31.254Z,95394.91
2023-03-17T07:14:58.325Z,95388.09
2023-03-17T07:17:25.494Z,95398.84
2023-03-17T07:19:55.435Z,95394.63
2023-03-17T07:22:22.654Z,95387.28
2023-03-17T07:24:49.790Z,95393.97
2023-03-17T07:27:17.048Z,95390.47
2023-03-17T07:29:44.020Z,95401.31
2023-03-17T07:32:11.399Z,95388.63
2023-03-17T07:34:38.388Z,95390.91
2023-03-17T07:37:07.173Z,95397.69
2023-03-17T07:39:34.147Z,95396.63
2023-03-17T07:42:00.978Z,95391.91
2023-03-17T07:44:27.862Z,95388.44
2023-03-17T07:46:54.809Z,95388.78
2023-03-17T07:49:34.290Z,95384.75
2023-03-17T07:52:08.513Z,95390.78
2023-03-17T07:54:36.474Z,95386.00
2023-03-17T07:57:04.354Z,95394.53
2023-03-17T07:59:31.792Z,95383.09
2023-03-17T08:02:00.489Z,95387.13
2023-03-17T08:04:28.387Z,95386.88
2023-03-17T08:06:55.837Z,95378.31
2023-03-17T08:09:23.204Z,95379.97
2023-03-17T08:11:50.523Z,95381.31
2023-03-17T08:14:17.530Z,95384.41
2023-03-17T08:16:44.576Z,95379.88
2023-03-17T08:19:11.902Z,95385.75
2023-03-17T08:21:38.663Z,95397.94
2023-03-17T08:24:06.030Z,95381.34
2023-03-17T08:26:32.901Z,95384.47
2023-03-17T08:29:00.935Z,95379.34
2023-03-17T08:31:30.970Z,95375.03
2023-03-17T08:33:58.827Z,95369.50
2023-03-17T08:36:26.632Z,95368.56
2023-03-17T08:38:53.648Z,95367.81
2023-03-17T08:41:24.846Z,95373.34
2023-03-17T08:43:52.288Z,95371.66
2023-03-17T08:46:31.578Z,95369.94
2023-03-17T08:48:58.982Z,95371.72
2023-03-17T08:51:28.572Z,95369.94
2023-03-17T08:53:55.538Z,95368.75
2023-03-17T08:56:22.710Z,95364.94
2023-03-17T08:58:49.558Z,95355.91
2023-03-17T09:01:16.763Z,95363.66
2023-03-17T09:03:43.815Z,95352.94
2023-03-17T09:06:12.576Z,95347.16
2023-03-17T09:08:40.949Z,95355.03
2023-03-17T09:11:08.577Z,95355.00
2023-03-17T09:13:39.141Z,95343.84
2023-03-17T09:16:09.054Z,95352.03
2023-03-17T09:18:36.364Z,95358.25
2023-03-17T09:21:04.080Z,95350.91
2023-03-17T09:23:31.303Z,95348.53
2023-03-17T09:25:58.106Z,95347.78
2023-03-17T09:28:25.019Z,95349.69
2023-03-17T09:30:53.213Z,95351.72
2023-03-17T09:33:19.763Z,95351.25
2023-03-17T09:35:46.774Z,95343.69
2023-03-17T09:38:13.748Z,95342.56
2023-03-17T09:41:02.670Z,95342.16
2023-03-17T09:43:35.710Z,95337.31
2023-03-17T09:46:25.439Z,95340.44
2023-03-17T09:49:15.478Z,95333.06
2023-03-17T09:51:43.315Z,95333.84
2023-03-17T09:54:19.164Z,95334.91
2023-03-17T09:56:48.764Z,95327.69
2023-03-17T09:59:27.335Z,95333.47
2023-03-17T10:01:54.293Z,95333.75
2023-03-17T10:04:21.375Z,95336.06
2023-03-17T10:06:48.451Z,95329.53
2023-03-17T10:09:26.197Z,95319.75
2023-03-17T10:12:05.875Z,95319.88
2023-03-17T10:15:01.243Z,95316.94
2023-03-17T10:17:34.723Z,95308.91
2023-03-17T10:20:04.890Z,95310.16
2023-03-17T10:22:38.243Z,95315.09
2023-03-17T10:25:17.430Z,95302.78
2023-03-17T10:27:50.720Z,95303.81
2023-03-17T10:30:19.451Z,95294.22
2023-03-17T10:32:47.130Z,95289.38
2023-03-17T10:35:15.269Z,95283.16
2023-03-17T10:37:43.911Z,95287.94
2023-03-17T10:40:25.315Z,95296.72
2023-03-17T10:43:00.808Z,95289.34
2023-03-17T10:45:29.653Z,95287.78
2023-03-17T10:47:57.621Z,95286.72
2023-03-17T10:50:30.620Z,95289.47
2023-03-17T10:53:02.185Z,95286.31
2023-03-17T10:55:34.181Z,95276.69
2023-03-17T10:58:28.121Z,95278.50
2023-03-17T11:01:06.012Z,95282.97
2023-03-17T11:03:36.022Z,95279.63
2023-03-17T11:06:08.697Z,95277.03
2023-03-17T11:08:41.740Z,95285.72
2023-03-17T11:11:28.242Z,95279.22
2023-03-17T11:14:13.611Z,95270.38
2023-03-17T11:16:47.790Z,95267.25
2023-03-17T11:19:15.748Z,95263.81
2023-03-17T11:22:06.547Z,95259.75
2023-03-17T11:24:36.541Z,95265.56
2023-03-17T11:27:26.049Z,95256.22
2023-03-17T11:30:21.652Z,95258.34
2023-03-17T11:33:03.417Z,95252.06
2023-03-17T11:35:51.581Z,95243.94
2023-03-17T11:38:51.900Z,95244.78
2023-03-17T11:41:45.374Z,95248.00
2023-03-17T11:44:42.606Z,95249.94
2023-03-17T11:47:28.554Z,95252.41
2023-03-17T11:50:18.697Z,95254.88
2023-03-17T11:53:14.673Z,95255.03
2023-03-17T11:55:46.028Z,95252.31
2023-03-17T11:58:36.376Z,95245.75
2023-03-17T12:01:09.276Z,95248.06
2023-03-17T12:03:36.894Z,95243.59
2023-03-17T12:06:08.717Z,95240.41
2023-03-17T12:08:59.820Z,95236.88
2023-03-17T12:11:29.148Z,95237.63
2023-03-17T12:14:05.008Z,95237.06
2023-03-17T12:16:52.911Z,95243.03
2023-03-17T12:19:20.879Z,95234.56
2023-03-17T12:21:52.608Z,95218.53
2023-03-17T12:24:40.101Z,95222.03
2023-03-17T12:27:14.493Z,95222.97
2023-03-17T12:29:47.776Z,95216.69
2023-03-17T12:32:29.590Z,95212.97
2023-03-17T12:34:57.684Z,95219.63
2023-03-17T12:37:28.443Z,95216.84
2023-03-17T12:40:00.793Z,95216.69
2023-03-17T12:42:47.264Z,95216.34
2023-03-17T12:45:37.627Z,95218.88
2023-03-17T12:48:24.763Z,95220.59
2023-03-17T12:51:10.407Z,95218.44
2023-03-17T12:53:45.509Z,95212.53
2023-03-17T12:56:21.245Z,95205.03
2023-03-17T12:58:52.540Z,95207.78
2023-03-17T13:01:24.551Z,95211.44
2023-03-17T13:04:18.333Z,95200.41
2023-03-17T13:07:21.944Z,95198.09
2023-03-17T13:09:50.853Z,95195.56
2023-03-17T13:12:36.157Z,95201.13
2023-03-17T13:15:03.053Z,95200.34
2023-03-17T13:17:31.283Z,95202.31
2023-03-17T13:20:10.619Z,95201.47
2023-03-17T13:22:38.632Z,95199.56
2023-03-17T13:25:31.370Z,95197.09
2023-03-17T13:28:13.884Z,95197.44
2023-03-17T13:30:40.628Z,95197.13
2023-03-17T13:33:10.672Z,95190.91
2023-03-17T13:35:43.377Z,95189.88
2023-03-17T13:38:31.932Z,95177.63
2023-03-17T13:41:13.766Z,95183.56
2023-03-17T13:44:08.753Z,95179.22
2023-03-17T13:46:37.871Z,95180.56
2023-03-17T13:49:24.425Z,95177.19
2023-03-17T13:52:07.563Z,95170.06
2023-03-17T13:54:35.696Z,95177.47
2023-03-17T13:57:22.601Z,95180.56
2023-03-17T14:00:06.389Z,95177.19
2023-03-17T14:02:36.623Z,95174.13
2023-03-17T14:05:08.349Z,95170.47
2023-03-17T14:07:57.314Z,95169.81
2023-03-17T14:10:26.083Z,95165.09
2023-03-17T14:13:15.732Z,95159.75
2023-03-17T14:16:04.189Z,95165.41
2023-03-17T14:18:35.943Z,95163.34
2023-03-17T14:21:08.914Z,95167.25
2023-03-17T14:23:37.522Z,95162.72
2023-03-17T14:26:05.405Z,95172.88
2023-03-17T14:28:33.964Z,95161.06
2023-03-17T14:31:03.208Z,95159.63
2023-03-17T14:33:34.904Z,95164.78
2023-03-17T14:36:04.487Z,95157.34
2023-03-17T14:38:46.446Z,95155.75
2023-03-17T14:41:27.402Z,95161.22
2023-03-17T14:43:58.128Z,95151.69
2023-03-17T14:46:27.605Z,95151.38
2023-03-17T14:49:17.788Z,95148.78
2023-03-17T14:51:44.824Z,95144.75
2023-03-17T14:54:19.877Z,95135.19
2023-03-17T14:57:02.425Z,95138.44
2023-03-17T15:00:09.723Z,95139.41
2023-03-17T15:02:38.389Z,95128.09
2023-03-17T15:05:17.415Z,95130.19
2023-03-17T15:07:44.419Z,95123.16
2023-03-17T15:10:31.383Z,95128.78
2023-03-17T15:13:03.837Z,95121.00
2023-03-17T15:15:35.363Z,95114.56
2023-03-17T15:18:10.514Z,95122.72
2023-03-17T15:20:37.296Z,95120.69
2023-03-17T15:23:26.895Z,95114.47
2023-03-17T15:25:56.821Z,95118.09
2023-03-17T15:28:26.709Z,95105.75
2023-03-17T15:30:54.947Z,95112.88
2023-03-17T15:33:38.289Z,95109.28
2023-03-17T15:36:05.247Z,95106.66
2023-03-17T15:38:33.507Z,95105.91
2023-03-17T15:41:00.518Z,95102.38
2023-03-17T15:43:27.627Z,95100.19
2023-03-17T15:46:05.925Z,95093.53
2023-03-17T15:48:38.139Z,95098.94
2023-03-17T15:51:05.433Z,95099.25
2023-03-17T15:53:32.331Z,95100.50
2023-03-17T15:55:59.522Z,95088.53
2023-03-17T15:58:26.357Z,95096.09
2023-03-17T16:00:54.866Z,95088.38
2023-03-17T16:03:30.420Z,95091.03
2023-03-17T16:05:58.115Z,95083.75
2023-03-17T16:08:25.198Z,95079.22
2023-03-17T16:10:54.882Z,95079.31
2023-03-17T16:13:22.541Z,95083.19
2023-03-17T16:15:57.473Z,95087.53
2023-03-17T16:18:36.293Z,95085.50
2023-03-17T16:21:04.400Z,95085.59
2023-03-17T16:23:32.250Z,95083.09
2023-03-17T16:26:12.085Z,95087.50
2023-03-17T16:28:41.699Z,95082.66
2023-03-17T16:31:30.492Z,95071.75
2023-03-17T16:33:57.524Z,95074.34
2023-03-17T16:36:24.859Z,95071.28
2023-03-17T16:38:51.858Z,95066.59
2023-03-17T16:41:20.829Z,95088.00
2023-03-17T16:43:55.419Z,95075.25
2023-03-17T16:46:22.921Z,95077.31
2023-03-17T16:48:50.379Z,95077.41
2023-03-17T16:51:17.333Z,95079.09
2023-03-17T16:53:44.892Z,95086.03
2023-03-17T16:56:19.977Z,95084.06
2023-03-17T16:58:47.084Z,95092.53
2023-03-17T17:01:19.916Z,95086.69
2023-03-17T17:03:47.151Z,95095.22
2023-03-17T17:06:17.209Z,95092.59
2023-03-17T17:08:44.960Z,95092.94
2023-03-17T17:11:15.085Z,95098.78
2023-03-17T17:13:42.722Z,95108.22
2023-03-17T17:16:17.206Z,95108.41
2023-03-17T17:18:44.198Z,95103.09
2023-03-17T17:21:11.413Z,95107.59
2023-03-17T17:23:38.287Z,95111.00
2023-03-17T17:26:05.401Z,95110.25
2023-03-17T17:28:32.488Z,95108.19
2023-03-17T17:31:00.096Z,95112.03
2023-03-17T17:33:27.283Z,95111.31
2023-03-17T17:35:54.359Z,95119.53
2023-03-17T17:38:26.981Z,95110.41
2023-03-17T17:40:55.074Z,95119.16
2023-03-17T17:43:22.143Z,95120.28
2023-03-17T17:45:49.172Z,95126.56
2023-03-17T17:48:17.179Z,95122.53
2023-03-17T17:50:44.099Z,95130.44
2023-03-17T17:53:12.702Z,95125.84
2023-03-17T17:55:44.273Z,95131.03
2023-03-17T17:58:13.860Z,95134.31
2023-03-17T18:00:40.706Z,95138.94
2023-03-17T18:03:07.658Z,95144.34
2023-03-17T18:05:34.582Z,95145.19
2023-03-17T18:08:04.645Z,95143.53
2023-03-17T18:10:32.005Z,95145.97
2023-03-17T18:12:59.588Z,95142.47
2023-03-17T18:15:27.510Z,95146.78
2023-03-17T18:17:54.542Z,95140.53
2023-03-17T18:20:22.281Z,95154.09
2023-03-17T18:22:50.533Z,95142.97
2023-03-17T18:25:17.713Z,95147.06
2023-03-17T18:27:44.859Z,95147.59
2023-03-17T18:30:14.362Z,95152.47
2023-03-17T18:32:41.713Z,95151.88
2023-03-17T18:35:10.708Z,95163.53
2023-03-17T18:37:37.792Z,95165.94
2023-03-17T18:40:14.203Z,95173.78
2023-03-17T18:42:43.030Z,95170.25
2023-03-17T18:45:11.972Z,95169.72
2023-03-17T18:47:39.471Z,95168.06
2023-03-17T18:50:07.478Z,95173.22
2023-03-17T18:52:35.971Z,95170.00
2023-03-17T18:55:03.038Z,95169.19
2023-03-17T18:57:29.917Z,95164.81
2023-03-17T18:59:56.855Z,95170.22
2023-03-17T19:02:24.119Z,95165.81
2023-03-17T19:04:51.707Z,95178.22
2023-03-17T19:07:18.839Z,95179.22
2023-03-17T19:09:46.723Z,95171.03
2023-03-17T19:12:13.710Z,95175.81
2023-03-17T19:14:40.897Z,95181.75
2023-03-17T19:17:08.031Z,95181.19
2023-03-17T19:19:35.532Z,95187.47
2023-03-17T19:22:02.772Z,95186.91
2023-03-17T19:24:31.519Z,95189.56
2023-03-17T19:26:58.344Z,95191.44
2023-03-17T19:29:26.245Z,95194.63
2023-03-17T19:31:53.180Z,95200.56
2023-03-17T19:34:20.244Z,95203.78
2023-03-17T19:36:47.477Z,95204.72
2023-03-17T19:39:14.714Z,95210.88
2023-03-17T19:41:41.558Z,95214.53
2023-03-17T19:44:08.625Z,95213.47
2023-03-17T19:46:36.962Z,95217.00
2023-03-17T19:49:05.144Z,95219.66
2023-03-17T19:51:32.992Z,95218.47
2023-03-17T19:54:00.145Z,95215.06
2023-03-17T19:56:28.039Z,95217.59
2023-03-17T19:58:55.166Z,95214.28
2023-03-17T20:01:23.154Z,95221.25
2023-03-17T20:03:50.777Z,95226.09
2023-03-17T20:06:17.652Z,95221.16
2023-03-17T20:08:44.619Z,95227.56
2023-03-17T20:11:12.327Z,95223.78
2023-03-17T20:13:39.388Z,95229.97
2023-03-17T20:16:06.910Z,95235.38
2023-03-17T20:18:33.885Z,95235.56
2023-03-17T20:21:01.705Z,95238.72
2023-03-17T20:23:28.545Z,95234.81
2023-03-17T20:25:55.458Z,95233.75
2023-03-17T20:28:22.272Z,95233.13
2023-03-17T20:30:49.509Z,95228.72
2023-03-17T20:33:16.687Z,95235.69
2023-03-17T20:35:44.634Z,95240.75
2023-03-17T20:38:13.138Z,95252.81
2023-03-17T20:40:40.048Z,95253.78
2023-03-17T20:43:08.202Z,95255.34
2023-03-17T20:45:35.110Z,95257.78
2023-03-17T20:48:02.430Z,95255.81
2023-03-17T20:50:31.240Z,95261.69
2023-03-17T20:52:58.626Z,95265.44
2023-03-17T20:55:25.566Z,95272.16
2023-03-17T20:57:53.008Z,95271.84
2023-03-17T21:00:21.448Z,95275.50
2023-03-17T21:02:50.466Z,95278.03
2023-03-17T21:05:19.908Z,95275.50
2023-03-17T21:07:48.431Z,95282.09
2023-03-17T21:10:15.653Z,95283.06
2023-03-17T21:12:42.788Z,95281.84
2023-03-17T21:15:10.374Z,95295.72
2023-03-17T21:17:38.811Z,95306.41
2023-03-17T21:20:07.542Z,95294.44
2023-03-17T21:22:36.454Z,95305.72
2023-03-17T21:25:04.822Z,95294.03
2023-03-17T21:27:31.743Z,95301.94
2023-03-17T21:29:58.695Z,95303.69
2023-03-17T21:32:25.946Z,95302.53
2023-03-17T21:34:54.605Z,95296.56
2023-03-17T21:37:21.571Z,95302.53
2023-03-17T21:39:48.647Z,95306.75
2023-03-17T21:42:15.624Z,95305.13
2023-03-17T21:44:42.678Z,95312.53
2023-03-17T21:47:09.517Z,95308.56
2023-03-17T21:49:36.345Z,95310.09
2023-03-17T21:52:03.501Z,95319.00
2023-03-17T21:54:30.983Z,95311.97
2023-03-17T21:56:58.630Z,95314.06
2023-03-17T21:59:25.594Z,95319.47
2023-03-17T22:01:53.455Z,95320.88
2023-03-17T22:04:20.325Z,95320.88
2023-03-17T22:06:47.237Z,95321.69
2023-03-17T22:09:17.046Z,95326.47
2023-03-17T22:11:45.754Z,95332.66
2023-03-17T22:14:13.606Z,95331.78
2023-03-17T22:16:40.642Z,95333.41
2023-03-17T22:19:10.388Z,95327.53
2023-03-17T22:21:37.898Z,95324.19
2023-03-17T22:24:04.926Z,95325.47
2023-03-17T22:26:31.874Z,95335.06
2023-03-17T22:28:59.776Z,95350.41
2023-03-17T22:31:28.158Z,95347.94
2023-03-17T22:33:58.097Z,95353.31
2023-03-17T22:36:25.120Z,95342.34
2023-03-17T22:38:52.030Z,95339.31
2023-03-17T22:41:21.897Z,95339.13
2023-03-17T22:43:49.204Z,95349.09
2023-03-17T22:46:16.571Z,95354.94
2023-03-17T22:48:44.257Z,95361.38
2023-03-17T22:51:13.477Z,95354.22
2023-03-17T22:53:40.749Z,95356.44
2023-03-17T22:56:08.221Z,95359.28
2023-03-17T22:58:35.035Z,95363.72
2023-03-17T23:01:02.947Z,95361.84
2023-03-17T23:03:30.005Z,95358.69
2023-03-17T23:05:58.555Z,95360.69
2023-03-17T23:08:26.191Z,95360.22
2023-03-17T23:10:54.003Z,95357.63
2023-03-17T23:13:21.227Z,95372.38
2023-03-17T23:15:48.671Z,95365.00
2023-03-17T23:18:16.112Z,95378.81
2023-03-17T23:20:43.411Z,95374.84
2023-03-17T23:23:10.830Z,95371.56
2023-03-17T23:25:38.756Z,95379.53
2023-03-17T23:28:06.342Z,95384.53
2023-03-17T23:30:33.936Z,95379.75
2023-03-17T23:33:01.753Z,95389.78
2023-03-17T23:35:29.265Z,95386.41
2023-03-17T23:37:56.665Z,95395.53
2023-03-17T23:40:23.743Z,95386.41
2023-03-17T23:42:50.900Z,95384.66
2023-03-17T23:45:18.261Z,95393.16
2023-03-17T23:47:46.347Z,95392.66
2023-03-17T23:50:14.543Z,95388.56
2023-03-17T23:52:42.687Z,95389.97
2023-03-17T23:55:10.620Z,95396.34
2023-03-17T23:57:38.141Z,95399.50
